createdAt,value
2019-02-24T00:00:48.558Z,3.98
2019-02-24T00:03:20.805Z,3.45
2019-02-24T00:05:54.059Z,2.70
2019-02-24T00:08:29.589Z,3.47
2019-02-24T00:11:01.361Z,3.65
2019-02-24T00:13:39.190Z,4.35
2019-02-24T00:16:10.901Z,3.10
2019-02-24T00:18:45.021Z,3.30
2019-02-24T00:21:16.280Z,3.00
2019-02-24T00:23:47.075Z,3.12
2019-02-24T00:26:20.012Z,2.95
2019-02-24T00:28:52.647Z,2.50
2019-02-24T00:31:23.924Z,2.70
2019-02-24T00:33:57.469Z,2.95
2019-02-24T00:36:28.030Z,3.02
2019-02-24T00:39:05.525Z,3.15
2019-02-24T00:41:40.691Z,2.98
2019-02-24T00:44:11.043Z,2.90
2019-02-24T00:46:45.518Z,2.47
2019-02-24T00:49:18.027Z,2.77
2019-02-24T00:51:52.241Z,2.17
2019-02-24T00:54:26.943Z,2.95
2019-02-24T00:56:57.411Z,2.85
2019-02-24T00:59:46.569Z,2.70
2019-02-24T01:02:19.491Z,3.42
2019-02-24T01:04:50.603Z,2.95
2019-02-24T01:07:25.386Z,2.72
2019-02-24T01:09:58.875Z,3.02
2019-02-24T01:12:29.554Z,3.50
2019-02-24T01:15:00.799Z,2.35
2019-02-24T01:17:32.822Z,3.65
2019-02-24T01:20:08.472Z,3.35
2019-02-24T01:22:38.985Z,2.42
2019-02-24T01:25:09.219Z,3.05
2019-02-24T01:27:39.504Z,2.25
2019-02-24T01:30:12.605Z,1.92
2019-02-24T01:32:47.262Z,3.00
2019-02-24T01:35:19.970Z,2.37
2019-02-24T01:37:51.179Z,2.45
2019-02-24T01:40:23.725Z,1.92
2019-02-24T01:42:58.880Z,2.55
2019-02-24T01:45:31.932Z,2.60
2019-02-24T01:48:02.947Z,2.45
2019-02-24T01:50:34.556Z,1.87
2019-02-24T01:53:05.266Z,2.70
2019-02-24T01:55:36.687Z,2.55
2019-02-24T01:58:08.063Z,2.22
2019-02-24T02:00:46.622Z,2.27
2019-02-24T02:03:18.676Z,2.67
2019-02-24T02:05:48.946Z,1.98
2019-02-24T02:08:21.799Z,1.90
2019-02-24T02:10:52.617Z,1.72
2019-02-24T02:13:23.738Z,2.15
2019-02-24T02:15:54.937Z,2.10
2019-02-24T02:18:25.178Z,1.82
2019-02-24T02:21:00.937Z,2.02
2019-02-24T02:23:31.123Z,1.40
2019-02-24T02:26:03.293Z,2.30
2019-02-24T02:28:34.082Z,1.50
2019-02-24T02:31:07.219Z,1.75
2019-02-24T02:33:37.834Z,1.77
2019-02-24T02:36:08.437Z,1.50
2019-02-24T02:38:40.271Z,1.45
2019-02-24T02:41:12.992Z,1.92
2019-02-24T02:43:45.900Z,1.65
2019-02-24T02:46:18.533Z,2.42
2019-02-24T02:48:51.778Z,1.52
2019-02-24T02:51:22.715Z,1.32
2019-02-24T02:53:55.556Z,1.90
2019-02-24T02:56:26.079Z,2.20
2019-02-24T02:58:56.908Z,1.17
2019-02-24T03:01:35.714Z,1.75
2019-02-24T03:04:01.146Z,2.15
2019-02-24T03:06:58.161Z,1.92
2019-02-24T03:09:28.798Z,1.95
2019-02-24T03:12:00.486Z,2.27
2019-02-24T03:14:33.251Z,1.87
2019-02-24T03:17:14.526Z,2.20
2019-02-24T03:19:47.408Z,2.02
2019-02-24T03:22:18.027Z,1.57
2019-02-24T03:24:48.332Z,2.05
2019-02-24T03:27:20.172Z,1.40
2019-02-24T03:29:51.058Z,1.02
2019-02-24T03:32:24.740Z,1.65
2019-02-24T03:34:58.696Z,1.50
2019-02-24T03:37:29.290Z,1.65
2019-02-24T03:40:01.865Z,1.45
2019-02-24T03:42:32.388Z,1.50
2019-02-24T03:45:02.569Z,1.12
2019-02-24T03:47:33.223Z,1.82
2019-02-24T03:50:06.389Z,1.75
2019-02-24T03:52:41.731Z,1.42
2019-02-24T03:55:12.248Z,2.10
2019-02-24T03:57:46.319Z,1.52
2019-02-24T04:00:17.437Z,1.50
2019-02-24T04:02:48.992Z,2.10
2019-02-24T04:05:28.688Z,1.95
2019-02-24T04:08:01.156Z,1.17
2019-02-24T04:10:31.933Z,1.50
2019-02-24T04:13:05.816Z,1.75
2019-02-24T04:15:37.672Z,1.60
2019-02-24T04:18:07.987Z,1.57
2019-02-24T04:20:39.072Z,2.45
2019-02-24T04:23:10.159Z,2.00
2019-02-24T04:25:41.870Z,2.75
2019-02-24T04:28:17.243Z,2.33
2019-02-24T04:30:48.264Z,1.65
2019-02-24T04:33:21.842Z,1.57
2019-02-24T04:35:54.750Z,1.80
2019-02-24T04:38:27.381Z,1.95
2019-02-24T04:41:02.532Z,1.55
2019-02-24T04:43:34.638Z,2.35
2019-02-24T04:46:08.029Z,2.08
2019-02-24T04:48:40.177Z,2.02
2019-02-24T04:51:12.773Z,2.12
2019-02-24T04:53:47.315Z,2.35
2019-02-24T04:56:21.822Z,2.33
2019-02-24T04:58:55.249Z,2.58
2019-02-24T05:01:28.245Z,2.35
2019-02-24T05:04:00.787Z,2.40
2019-02-24T05:06:31.108Z,2.65
2019-02-24T05:09:04.163Z,3.52
2019-02-24T05:11:36.305Z,2.98
2019-02-24T05:14:11.101Z,2.85
2019-02-24T05:16:45.245Z,2.87
2019-02-24T05:19:17.037Z,2.42
2019-02-24T05:21:49.618Z,2.92
2019-02-24T05:24:19.868Z,2.47
2019-02-24T05:26:50.157Z,2.30
2019-02-24T05:29:20.949Z,2.35
2019-02-24T05:31:55.419Z,1.67
2019-02-24T05:34:29.999Z,2.25
2019-02-24T05:37:02.433Z,1.62
2019-02-24T05:39:32.760Z,2.27
2019-02-24T05:42:58.487Z,2.22
2019-02-24T05:45:31.946Z,1.62
2019-02-24T05:48:02.221Z,2.45
2019-02-24T05:50:35.218Z,2.37
2019-02-24T05:53:08.919Z,1.82
2019-02-24T05:55:39.790Z,2.25
2019-02-24T05:58:11.837Z,1.90
2019-02-24T06:00:42.362Z,2.40
2019-02-24T06:03:15.962Z,2.08
2019-02-24T06:05:48.134Z,1.82
2019-02-24T06:08:30.625Z,1.57
2019-02-24T06:11:10.377Z,1.85
2019-02-24T06:13:46.074Z,1.42
2019-02-24T06:16:18.971Z,1.50
2019-02-24T06:18:51.173Z,2.37
2019-02-24T06:21:21.462Z,2.25
2019-02-24T06:23:54.024Z,2.67
2019-02-24T06:26:24.209Z,2.10
2019-02-24T06:28:56.501Z,3.08
2019-02-24T06:31:27.449Z,2.90
2019-02-24T06:34:01.275Z,2.33
2019-02-24T06:36:35.219Z,3.22
2019-02-24T06:39:08.682Z,3.85
2019-02-24T06:41:41.654Z,5.55
2019-02-24T06:44:13.583Z,3.75
2019-02-24T06:46:43.824Z,3.60
2019-02-24T06:49:14.058Z,2.85
2019-02-24T06:51:46.538Z,8.08
2019-02-24T06:54:18.475Z,3.85
2019-02-24T06:56:52.184Z,2.70
2019-02-24T06:59:22.386Z,4.55
2019-02-24T07:01:53.746Z,5.78
2019-02-24T07:04:29.083Z,6.83
2019-02-24T07:06:59.291Z,6.60
2019-02-24T07:09:32.279Z,5.20
2019-02-24T07:12:07.887Z,5.67
2019-02-24T07:14:38.564Z,8.80
2019-02-24T07:17:09.648Z,8.20
2019-02-24T07:19:51.434Z,7.15
2019-02-24T07:22:21.737Z,6.80
2019-02-24T07:24:52.694Z,6.40
2019-02-24T07:27:25.542Z,6.62
2019-02-24T07:30:04.518Z,4.12
2019-02-24T07:32:36.466Z,3.02
2019-02-24T07:35:09.004Z,3.35
2019-02-24T07:37:44.044Z,3.17
2019-02-24T07:40:22.771Z,2.98
2019-02-24T07:42:55.775Z,3.90
2019-02-24T07:45:29.436Z,3.25
2019-02-24T07:48:11.181Z,2.25
2019-02-24T07:50:46.323Z,3.20
2019-02-24T07:53:25.635Z,2.85
2019-02-24T07:56:00.562Z,2.27
2019-02-24T07:58:34.262Z,2.20
2019-02-24T08:01:06.149Z,3.42
2019-02-24T08:03:37.682Z,3.40
2019-02-24T08:06:08.163Z,4.08
2019-02-24T08:08:42.421Z,4.60
2019-02-24T08:11:12.578Z,5.05
2019-02-24T08:13:44.028Z,4.83
2019-02-24T08:16:14.963Z,3.87
2019-02-24T08:18:49.473Z,3.60
2019-02-24T08:21:18.011Z,3.17
2019-02-24T08:23:51.409Z,3.25
2019-02-24T08:26:23.377Z,4.00
2019-02-24T08:28:53.766Z,3.83
2019-02-24T08:31:34.801Z,4.10
2019-02-24T08:34:50.754Z,5.70
2019-02-24T08:37:20.990Z,3.67
2019-02-24T08:39:51.173Z,3.70
2019-02-24T08:42:21.313Z,3.65
2019-02-24T08:44:53.982Z,3.50
2019-02-24T08:47:26.898Z,3.40
2019-02-24T08:49:57.973Z,3.45
2019-02-24T08:52:28.105Z,4.17
2019-02-24T08:54:59.924Z,3.70
2019-02-24T08:57:31.025Z,3.67
2019-02-24T09:00:02.082Z,4.08
2019-02-24T09:02:32.379Z,3.42
2019-02-24T09:05:02.525Z,4.03
2019-02-24T09:07:33.392Z,4.80
2019-02-24T09:10:03.589Z,4.25
2019-02-24T09:12:34.066Z,4.55
2019-02-24T09:15:04.735Z,3.98
2019-02-24T09:17:36.140Z,3.30
2019-02-24T09:20:09.175Z,4.08
2019-02-24T09:22:40.060Z,3.72
2019-02-24T09:25:23.380Z,4.22
2019-02-24T09:27:55.049Z,3.12
2019-02-24T09:30:25.179Z,3.80
2019-02-24T09:33:34.143Z,3.00
2019-02-24T09:36:04.401Z,3.80
2019-02-24T09:38:36.073Z,3.50
2019-02-24T09:41:08.628Z,4.03
2019-02-24T09:43:39.527Z,3.67
2019-02-24T09:46:11.403Z,3.98
2019-02-24T09:48:41.596Z,3.30
2019-02-24T09:51:14.516Z,4.00
2019-02-24T09:53:45.191Z,3.72
2019-02-24T09:56:18.415Z,3.30
2019-02-24T09:58:48.919Z,2.87
2019-02-24T10:01:19.720Z,2.65
2019-02-24T10:03:49.860Z,3.52
2019-02-24T10:06:20.029Z,2.83
2019-02-24T10:08:50.600Z,3.08
2019-02-24T10:11:20.772Z,2.60
2019-02-24T10:13:51.315Z,2.70
2019-02-24T10:16:21.812Z,2.52
2019-02-24T10:18:53.584Z,2.90
2019-02-24T10:21:23.817Z,2.20
2019-02-24T10:23:53.963Z,2.60
2019-02-24T10:26:44.683Z,2.90
2019-02-24T10:29:14.860Z,1.90
2019-02-24T10:31:45.335Z,2.55
2019-02-24T10:34:17.414Z,2.35
2019-02-24T10:36:49.685Z,2.87
2019-02-24T10:39:29.548Z,2.37
2019-02-24T10:41:55.147Z,2.55
2019-02-24T10:44:26.518Z,4.22
2019-02-24T10:46:59.913Z,5.47
2019-02-24T10:49:36.453Z,3.20
2019-02-24T10:52:15.681Z,3.62
2019-02-24T10:54:50.635Z,3.80
2019-02-24T10:57:26.091Z,2.30
2019-02-24T10:59:56.789Z,2.30
2019-02-24T11:02:30.254Z,1.98
2019-02-24T11:05:00.653Z,1.90
2019-02-24T11:07:31.082Z,2.15
2019-02-24T11:10:01.205Z,1.92
2019-02-24T11:12:32.824Z,2.05
2019-02-24T11:15:03.725Z,2.47
2019-02-24T11:17:39.653Z,2.47
2019-02-24T11:23:50.971Z,1.72
2019-02-24T11:26:21.160Z,2.00
2019-02-24T11:28:54.299Z,1.80
2019-02-24T11:31:38.213Z,1.50
2019-02-24T11:34:09.744Z,2.70
2019-02-24T11:36:45.627Z,1.57
2019-02-24T11:39:22.348Z,1.90
2019-02-24T11:41:51.246Z,2.17
2019-02-24T11:44:23.387Z,1.65
2019-02-24T11:46:58.457Z,2.05
2019-02-24T11:49:39.005Z,2.15
2019-02-24T11:52:47.950Z,1.65
2019-02-24T11:55:27.582Z,1.87
2019-02-24T12:39:44.007Z,2.90
2019-02-24T12:50:13.563Z,3.10
2019-02-24T12:53:40.948Z,2.98
2019-02-24T12:59:09.527Z,2.42
2019-02-24T13:01:41.699Z,3.70
2019-02-24T13:04:33.891Z,3.47
2019-02-24T13:07:08.093Z,3.37
2019-02-24T13:09:58.642Z,2.42
2019-02-24T13:12:31.798Z,2.60
2019-02-24T13:15:07.683Z,2.05
2019-02-24T13:17:42.323Z,2.12
2019-02-24T13:20:18.639Z,2.12
2019-02-24T13:22:55.878Z,1.80
2019-02-24T13:25:37.048Z,1.60
2019-02-24T13:28:21.028Z,1.77
2019-02-24T13:31:11.899Z,1.95
2019-02-24T13:33:45.035Z,1.80
2019-02-24T13:36:19.671Z,1.80
2019-02-24T13:39:01.016Z,1.72
2019-02-24T13:41:39.382Z,1.65
2019-02-24T13:44:14.521Z,1.50
2019-02-24T13:46:47.512Z,1.60
2019-02-24T13:49:17.670Z,1.90
2019-02-24T13:51:47.872Z,1.42
2019-02-24T13:54:23.481Z,2.12
2019-02-24T13:56:54.616Z,1.92
2019-02-24T13:59:26.918Z,2.20
2019-02-24T14:01:58.307Z,1.30
2019-02-24T14:04:28.460Z,2.65
2019-02-24T14:06:58.633Z,1.60
2019-02-24T14:09:29.813Z,1.32
2019-02-24T14:12:01.067Z,1.47
2019-02-24T14:14:32.394Z,1.25
2019-02-24T14:17:03.843Z,0.90
2019-02-24T14:19:34.025Z,0.68
2019-02-24T14:22:06.334Z,0.80
2019-02-24T14:24:37.714Z,1.45
2019-02-24T14:27:08.012Z,1.17
2019-02-24T14:29:38.163Z,1.00
2019-02-24T14:32:10.728Z,1.23
2019-02-24T14:34:43.648Z,1.40
2019-02-24T14:37:14.931Z,1.43
2019-02-24T14:39:47.282Z,1.23
2019-02-24T14:42:19.834Z,1.20
2019-02-24T14:44:50.381Z,2.10
2019-02-24T14:47:21.627Z,1.10
2019-02-24T14:49:51.841Z,1.30
2019-02-24T14:52:22.042Z,1.40
2019-02-24T14:54:53.122Z,1.47
2019-02-24T14:57:23.247Z,1.10
2019-02-24T14:59:53.386Z,1.53
2019-02-24T15:02:24.759Z,1.40
2019-02-24T15:04:57.699Z,1.40
2019-02-24T15:07:29.464Z,2.37
2019-02-24T15:09:59.687Z,1.17
2019-02-24T15:12:29.806Z,1.23
2019-02-24T15:15:00.057Z,1.00
2019-02-24T15:17:31.900Z,1.17
2019-02-24T15:20:02.308Z,1.27
2019-02-24T15:22:32.463Z,1.10
2019-02-24T15:25:03.775Z,1.77
2019-02-24T15:27:35.889Z,0.98
2019-02-24T15:30:10.512Z,0.98
2019-02-24T15:32:40.871Z,0.80
2019-02-24T15:35:11.954Z,0.88
2019-02-24T15:37:42.173Z,1.10
2019-02-24T15:40:15.468Z,0.90
2019-02-24T15:42:45.706Z,1.10
2019-02-24T15:45:17.284Z,1.42
2019-02-24T15:47:47.889Z,1.50
2019-02-24T15:50:25.587Z,1.17
2019-02-24T15:52:56.405Z,1.45
2019-02-24T15:55:26.582Z,2.47
2019-02-24T15:57:56.997Z,0.90
2019-02-24T16:00:27.977Z,1.45
2019-02-24T16:03:01.868Z,1.05
2019-02-24T16:05:31.647Z,1.45
2019-02-24T16:08:06.073Z,1.10
2019-02-24T16:10:46.367Z,1.25
2019-02-24T16:13:23.366Z,1.95
2019-02-24T16:15:58.073Z,2.00
2019-02-24T16:21:42.800Z,2.10
2019-02-24T16:24:43.596Z,10.43
2019-02-24T16:27:19.407Z,10.63
2019-02-24T16:29:52.002Z,3.05
2019-02-24T16:32:25.956Z,2.10
2019-02-24T16:34:57.412Z,2.22
2019-02-24T16:37:28.576Z,2.52
2019-02-24T16:40:00.283Z,1.55
2019-02-24T16:42:31.160Z,1.80
2019-02-24T16:45:02.125Z,2.12
2019-02-24T16:47:34.169Z,2.62
2019-02-24T16:50:05.476Z,1.80
2019-02-24T16:52:37.445Z,2.75
2019-02-24T16:55:09.696Z,2.92
2019-02-24T16:57:40.551Z,2.60
2019-02-24T17:00:14.940Z,6.40
2019-02-24T17:02:45.492Z,7.78
2019-02-24T17:05:17.915Z,8.45
2019-02-24T17:07:49.306Z,6.92
2019-02-24T17:10:20.974Z,4.80
2019-02-24T17:12:53.603Z,4.03
2019-02-24T17:15:26.031Z,3.10
2019-02-24T17:17:59.774Z,3.15
2019-02-24T17:20:30.606Z,3.58
2019-02-24T17:23:01.812Z,4.00
2019-02-24T17:25:36.151Z,3.35
2019-02-24T17:28:14.394Z,3.15
2019-02-24T17:30:46.610Z,2.80
2019-02-24T17:33:38.979Z,2.52
2019-02-24T17:36:12.062Z,2.50
2019-02-24T17:38:45.524Z,2.50
2019-02-24T17:41:18.063Z,2.22
2019-02-24T17:43:49.292Z,3.25
2019-02-24T17:46:21.383Z,3.70
2019-02-24T17:48:54.203Z,5.50
2019-02-24T17:51:24.889Z,6.20
2019-02-24T17:53:59.966Z,3.65
2019-02-24T17:56:30.952Z,2.95
2019-02-24T17:59:01.695Z,2.90
2019-02-24T18:01:33.622Z,2.83
2019-02-24T18:04:04.335Z,1.70
2019-02-24T18:06:36.003Z,2.85
2019-02-24T18:12:09.782Z,2.37
2019-02-24T18:14:41.918Z,2.20
2019-02-24T18:17:22.832Z,2.50
2019-02-24T18:19:53.485Z,4.25
2019-02-24T18:22:24.515Z,3.70
2019-02-24T18:25:03.164Z,6.78
2019-02-24T18:27:30.859Z,6.53
2019-02-24T18:30:02.222Z,5.25
2019-02-24T18:32:35.692Z,8.53
2019-02-24T18:35:12.496Z,7.90
2019-02-24T18:37:43.529Z,7.50
2019-02-24T18:40:30.152Z,4.90
2019-02-24T18:43:00.840Z,6.78
2019-02-24T18:45:33.246Z,5.90
2019-02-24T18:48:05.600Z,5.40
2019-02-24T18:50:35.762Z,3.95
2019-02-24T18:53:06.562Z,3.70
2019-02-24T18:55:37.375Z,2.25
2019-02-24T18:58:32.159Z,2.10
2019-02-24T19:06:00.579Z,3.02
2019-02-24T19:08:31.676Z,2.25
2019-02-24T20:33:05.798Z,5.35
2019-02-24T20:55:55.352Z,3.00
2019-02-24T21:15:25.026Z,2.35
2019-02-24T21:44:59.630Z,1.87
2019-02-24T22:30:54.564Z,1.80
